Time;durP1;ratioP1;P1;durP2;ratioP2;P2;SDS_P1;SDS_P2;PMS_P1;PMS_P2;Temp;Humidity;BMP_temperature;BMP_pressure;BME280_temperature;BME280_humidity;BME280_pressure;Samples;Min_cycle;Max_cycle;Signal;HPM_P1;HPM_P2
2021/08/13 00:02:11;;;;;;;13.05;7.82;;;;;;;;;;5060321;28;20033;-82
2021/08/13 00:04:38;;;;;;;12.80;8.00;;;;;;;;;;5053935;28;20026;-79
2021/08/13 00:07:05;;;;;;;12.35;7.65;;;21.00;99.90;;;;;;5056563;28;20029;-81
2021/08/13 00:09:31;;;;;;;12.75;7.88;;;;;;;;;;5066008;28;20017;-82
2021/08/13 00:11:57;;;;;;;11.80;7.95;;;;;;;;;;5055072;28;20097;-79
2021/08/13 00:14:23;;;;;;;12.98;8.38;;;;;;;;;;5054470;28;20017;-81
2021/08/13 00:16:49;;;;;;;11.60;7.30;;;;;;;;;;5066576;28;20026;-81
2021/08/13 00:19:15;;;;;;;13.20;8.25;;;;;;;;;;5063510;28;20045;-83
2021/08/13 00:21:44;;;;;;;12.55;7.63;;;;;;;;;;5052714;28;20029;-82
2021/08/13 00:24:10;;;;;;;12.02;7.93;;;;;;;;;;5053096;28;20074;-79
2021/08/13 00:26:36;;;;;;;13.73;8.57;;;;;;;;;;5053307;28;20025;-80
2021/08/13 00:29:01;;;;;;;13.77;8.13;;;20.90;99.90;;;;;;5057540;28;20479;-83
2021/08/13 00:31:28;;;;;;;11.55;8.25;;;20.60;99.90;;;;;;5050947;28;20048;-83
2021/08/13 00:33:54;;;;;;;13.18;8.90;;;;;;;;;;5055682;28;20111;-83
2021/08/13 00:36:20;;;;;;;12.68;8.73;;;;;;;;;;5046829;28;20079;-80
2021/08/13 00:38:45;;;;;;;15.43;8.52;;;20.80;99.90;;;;;;5056967;28;20041;-82
2021/08/13 00:41:11;;;;;;;14.82;8.75;;;21.20;99.90;;;;;;5054020;28;20028;-82
2021/08/13 00:43:37;;;;;;;13.82;9.48;;;21.00;99.90;;;;;;5059596;28;20036;-83
2021/08/13 00:46:02;;;;;;;16.17;9.75;;;21.00;99.90;;;;;;5055735;28;20055;-82
2021/08/13 00:48:28;;;;;;;14.43;8.68;;;21.20;99.90;;;;;;5053683;28;20025;-80
2021/08/13 00:50:53;;;;;;;10.25;7.13;;;21.30;99.90;;;;;;5051662;28;20135;-83
2021/08/13 00:53:19;;;;;;;11.75;7.13;;;21.30;99.90;;;;;;5066433;28;20479;-81
2021/08/13 00:55:49;;;;;;;10.43;6.78;;;21.40;99.90;;;;;;5054121;28;20549;-81
2021/08/13 00:58:15;;;;;;;10.13;7.00;;;21.30;99.90;;;;;;5029561;28;20097;-85
2021/08/13 01:00:43;;;;;;;12.23;7.43;;;21.20;99.90;;;;;;5059091;28;20045;-83
2021/08/13 01:03:09;;;;;;;10.85;6.90;;;22.00;99.90;;;;;;5052573;28;20380;-84
2021/08/13 01:05:35;;;;;;;11.65;7.70;;;;;;;;;;5054318;28;20052;-82
2021/08/13 01:08:01;;;;;;;11.65;7.80;;;;;;;;;;5062722;28;20029;-84
2021/08/13 01:10:31;;;;;;;12.02;7.47;;;21.10;99.90;;;;;;5056358;28;20076;-83
2021/08/13 01:13:12;;;;;;;10.82;6.85;;;21.20;99.90;;;;;;5051796;28;20025;-84
2021/08/13 01:15:42;;;;;;;10.90;7.53;;;21.20;99.90;;;;;;5074864;28;20132;-83
2021/08/13 01:18:12;;;;;;;12.77;7.68;;;21.20;99.90;;;;;;5059146;28;20025;-82
2021/08/13 01:21:16;;;;;;;12.20;7.85;;;23.00;99.90;;;;;;5046337;28;20040;-81
2021/08/13 01:24:06;;;;;;;11.18;6.47;;;21.30;99.90;;;;;;5046633;28;20075;-81
2021/08/13 01:26:38;;;;;;;11.82;6.82;;;21.30;99.90;;;;;;5049055;28;20038;-82
2021/08/13 01:29:11;;;;;;;12.77;7.63;;;21.30;99.90;;;;;;5074506;28;20037;-82
2021/08/13 01:32:12;;;;;;;14.13;9.05;;;21.90;99.90;;;;;;5043572;28;20028;-82
2021/08/13 01:34:47;;;;;;;18.95;7.47;;;21.40;99.90;;;;;;5044693;28;20041;-82
2021/08/13 01:37:14;;;;;;;10.30;7.00;;;21.40;99.90;;;;;;5035669;28;20060;-81
2021/08/13 01:39:42;;;;;;;10.23;7.10;;;21.70;99.90;;;;;;5045373;28;20049;-83
2021/08/13 01:42:09;;;;;;;12.05;7.53;;;21.40;99.90;;;;;;5056152;28;20047;-83
2021/08/13 01:44:37;;;;;;;10.57;6.93;;;21.40;99.90;;;;;;5048002;28;20033;-82
2021/08/13 01:47:03;;;;;;;11.82;7.22;;;21.50;99.90;;;;;;5071611;28;20017;-80
2021/08/13 01:49:31;;;;;;;11.00;6.88;;;21.50;99.90;;;;;;5050395;28;20036;-81
2021/08/13 01:51:58;;;;;;;10.98;7.30;;;21.50;99.90;;;;;;5077391;28;20075;-81
2021/08/13 01:54:24;;;;;;;9.55;6.65;;;;;;;;;;5076156;28;20552;-81
2021/08/13 01:56:51;;;;;;;13.00;7.43;;;21.50;99.90;;;;;;5061817;28;20033;-81
2021/08/13 01:59:17;;;;;;;11.57;6.93;;;;;;;;;;5068698;28;20339;-82
2021/08/13 02:01:43;;;;;;;10.15;6.85;;;;;;;;;;5059010;28;20032;-81
2021/08/13 02:04:10;;;;;;;10.60;7.25;;;21.40;99.90;;;;;;5056031;28;20351;-82
2021/08/13 02:06:36;;;;;;;14.52;7.20;;;;;;;;;;5056396;28;20021;-81
2021/08/13 02:09:03;;;;;;;10.35;6.93;;;21.20;99.90;;;;;;5065405;28;20040;-81
2021/08/13 02:11:30;;;;;;;10.65;7.10;;;21.20;99.90;;;;;;5056754;28;20290;-83
2021/08/13 02:13:56;;;;;;;11.63;7.55;;;;;;;;;;5059994;28;20029;-80
2021/08/13 02:16:26;;;;;;;11.82;7.15;;;21.10;99.90;;;;;;5060236;28;20056;-82
2021/08/13 02:19:11;;;;;;;12.55;8.10;;;21.00;99.90;;;;;;5063117;28;20497;-84
2021/08/13 02:21:41;;;;;;;11.70;7.45;;;21.10;99.90;;;;;;5059847;28;20482;-81
2021/08/13 02:24:07;;;;;;;12.50;7.50;;;;;;;;;;5054613;28;20041;-83
2021/08/13 02:26:33;;;;;;;13.52;8.38;;;;;;;;;;5064150;28;20032;-81
2021/08/13 02:29:01;;;;;;;12.85;7.22;;;;;;;;;;5044969;28;20053;-83
2021/08/13 02:31:27;;;;;;;13.20;7.40;;;;;;;;;;5058891;28;20021;-83
2021/08/13 02:33:53;;;;;;;11.75;7.90;;;;;;;;;;5048213;28;20033;-80
2021/08/13 02:36:30;;;;;;;14.27;7.70;;;21.10;99.90;;;;;;5063354;28;20021;-83
2021/08/13 02:39:11;;;;;;;11.05;7.40;;;21.00;99.90;;;;;;5054279;28;20028;-84
2021/08/13 02:41:39;;;;;;;13.85;7.75;;;20.80;99.90;;;;;;5073342;28;20051;-84
2021/08/13 02:44:07;;;;;;;11.52;7.70;;;20.80;99.90;;;;;;5062311;28;20119;-82
2021/08/13 02:46:52;;;;;;;12.60;7.55;;;20.80;99.90;;;;;;5052734;28;20059;-79
2021/08/13 02:49:19;;;;;;;11.27;7.10;;;20.90;99.90;;;;;;5053155;28;20070;-82
2021/08/13 02:51:46;;;;;;;11.40;7.68;;;20.90;99.90;;;;;;5063185;28;20017;-82
2021/08/13 02:54:21;;;;;;;12.52;7.57;;;20.90;99.90;;;;;;5044082;28;20041;-82
2021/08/13 02:56:52;;;;;;;11.45;7.47;;;20.90;99.90;;;;;;5043712;28;20112;-81
2021/08/13 02:59:19;;;;;;;11.93;7.43;;;20.90;99.90;;;;;;5054213;28;20550;-83
2021/08/13 03:01:46;;;;;;;11.07;7.35;;;22.90;99.90;;;;;;5060482;28;20021;-84
2021/08/13 03:04:13;;;;;;;12.63;7.95;;;20.90;99.90;;;;;;5057538;28;20025;-83
2021/08/13 03:06:42;;;;;;;10.32;6.78;;;21.00;99.90;;;;;;5060251;28;20040;-83
2021/08/13 03:09:08;;;;;;;10.10;7.00;;;;;;;;;;5053211;28;20417;-80
2021/08/13 03:11:36;;;;;;;11.18;7.32;;;21.00;99.90;;;;;;5067611;28;20027;-83
2021/08/13 03:14:03;;;;;;;13.40;7.32;;;21.00;99.90;;;;;;5076801;28;20124;-83
2021/08/13 03:16:32;;;;;;;11.55;7.28;;;20.60;99.90;;;;;;5053601;28;20029;-82
2021/08/13 03:18:58;;;;;;;11.18;7.50;;;;;;;;;;5046958;28;20034;-82
2021/08/13 03:21:24;;;;;;;11.20;7.13;;;21.00;99.90;;;;;;5054796;28;20028;-82
2021/08/13 03:23:51;;;;;;;10.70;7.40;;;;;;;;;;5052302;28;20032;-83
2021/08/13 03:26:17;;;;;;;10.57;7.38;;;;;;;;;;5054229;28;20017;-81
2021/08/13 03:28:43;;;;;;;13.38;6.78;;;;;;;;;;5060227;28;20032;-81
2021/08/13 03:31:09;;;;;;;10.50;7.28;;;;;;;;;;5058080;28;20033;-81
2021/08/13 03:33:35;;;;;;;11.30;7.35;;;;;;;;;;5059259;28;20040;-83
2021/08/13 03:36:01;;;;;;;11.07;7.05;;;;;;;;;;5050392;28;20044;-80
2021/08/13 03:38:27;;;;;;;12.45;7.35;;;;;;;;;;5063607;28;20024;-82
2021/08/13 03:40:53;;;;;;;12.32;7.13;;;;;;;;;;5055728;28;20052;-82
2021/08/13 03:43:20;;;;;;;12.77;7.68;;;20.80;99.90;;;;;;5050264;28;20025;-81
2021/08/13 03:45:46;;;;;;;12.35;7.75;;;;;;;;;;5054232;28;20021;-81
2021/08/13 03:48:12;;;;;;;11.45;7.80;;;;;;;;;;5049331;28;20079;-83
2021/08/13 03:50:38;;;;;;;12.85;7.50;;;20.60;99.90;;;;;;5048172;28;20032;-84
2021/08/13 03:53:04;;;;;;;11.48;7.25;;;;;;;;;;5053619;28;20033;-79
2021/08/13 03:55:30;;;;;;;13.00;7.15;;;;;;;;;;5068381;28;20086;-82
2021/08/13 03:57:56;;;;;;;11.88;8.13;;;;;;;;;;5056108;28;20035;-82
2021/08/13 04:00:22;;;;;;;13.27;8.52;;;;;;;;;;5058162;28;20029;-81
2021/08/13 04:02:48;;;;;;;10.32;6.95;;;;;;;;;;5057221;28;20028;-80
2021/08/13 04:05:14;;;;;;;12.63;7.40;;;;;;;;;;5047435;28;20025;-82
2021/08/13 04:07:40;;;;;;;11.50;7.18;;;;;;;;;;5067942;28;20029;-81
2021/08/13 04:10:06;;;;;;;9.88;6.90;;;20.30;99.90;;;;;;5053962;28;20063;-80
2021/08/13 04:12:32;;;;;;;10.98;6.90;;;;;;;;;;5065018;28;20025;-82
2021/08/13 04:14:58;;;;;;;12.57;8.10;;;;;;;;;;5064190;28;20127;-82
2021/08/13 04:17:24;;;;;;;11.25;7.35;;;;;;;;;;5059014;28;20029;-79
2021/08/13 04:19:50;;;;;;;10.82;7.57;;;;;;;;;;5041895;28;20035;-80
2021/08/13 04:22:17;;;;;;;11.40;7.50;;;;;;;;;;5059407;28;20025;-80
2021/08/13 04:24:43;;;;;;;11.38;7.35;;;;;;;;;;5053011;28;20025;-81
2021/08/13 04:27:09;;;;;;;12.80;7.78;;;;;;;;;;5067014;28;20440;-82
2021/08/13 04:29:35;;;;;;;12.95;8.10;;;;;;;;;;5076476;28;20021;-80
2021/08/13 04:32:01;;;;;;;10.98;7.28;;;;;;;;;;5054771;28;20030;-80
2021/08/13 04:34:27;;;;;;;11.77;6.95;;;20.10;99.90;;;;;;5052864;28;20025;-84
2021/08/13 04:36:53;;;;;;;13.82;8.48;;;;;;;;;;5063503;28;20017;-82
2021/08/13 04:39:19;;;;;;;13.57;8.50;;;;;;;;;;5053976;28;20116;-86
2021/08/13 04:41:44;;;;;;;12.93;7.63;;;20.10;99.90;;;;;;5072954;28;20025;-86
2021/08/13 04:44:10;;;;;;;11.90;7.32;;;20.40;99.90;;;;;;5054785;28;20030;-83
2021/08/13 04:46:36;;;;;;;11.75;7.35;;;;;;;;;;5059601;28;20088;-82
2021/08/13 04:49:02;;;;;;;13.52;7.55;;;;;;;;;;5056120;28;20093;-82
2021/08/13 04:51:28;;;;;;;13.27;7.97;;;20.10;99.90;;;;;;5059251;28;20033;-83
2021/08/13 04:53:54;;;;;;;15.32;7.68;;;;;;;;;;5060709;28;20039;-84
2021/08/13 04:56:20;;;;;;;12.50;7.70;;;;;;;;;;5054830;28;20033;-84
2021/08/13 04:58:46;;;;;;;12.70;7.25;;;;;;;;;;5056790;28;20112;-82
2021/08/13 05:01:12;;;;;;;11.70;7.50;;;;;;;;;;5051595;28;20033;-81
2021/08/13 05:03:38;;;;;;;13.05;7.93;;;;;;;;;;5057486;28;20041;-82
2021/08/13 05:06:04;;;;;;;11.75;7.95;;;;;;;;;;5065215;28;20067;-82
2021/08/13 05:08:30;;;;;;;12.93;7.63;;;;;;;;;;5056022;28;20479;-84
2021/08/13 05:10:56;;;;;;;13.27;8.43;;;;;;;;;;5066893;28;20055;-82
2021/08/13 05:13:22;;;;;;;12.43;7.68;;;;;;;;;;5044062;28;20040;-81
2021/08/13 05:15:48;;;;;;;11.75;7.70;;;;;;;;;;5078724;28;20242;-84
2021/08/13 05:18:14;;;;;;;12.35;7.68;;;;;;;;;;5056310;28;20052;-79
2021/08/13 05:20:40;;;;;;;11.70;7.70;;;20.30;99.90;;;;;;5053626;28;20033;-81
2021/08/13 05:23:06;;;;;;;11.32;7.75;;;20.30;99.90;;;;;;5078416;28;20033;-81
2021/08/13 05:25:32;;;;;;;11.30;7.25;;;;;;;;;;5057045;28;20045;-80
2021/08/13 05:27:58;;;;;;;11.00;7.65;;;20.30;99.90;;;;;;5053626;28;20040;-80
2021/08/13 05:30:23;;;;;;;13.23;7.82;;;20.40;99.90;;;;;;5051366;28;20104;-83
2021/08/13 05:32:50;;;;;;;11.07;7.65;;;20.40;99.90;;;;;;5057550;28;20063;-83
2021/08/13 05:35:16;;;;;;;13.57;8.00;;;;;;;;;;5054693;28;20543;-82
2021/08/13 05:37:42;;;;;;;14.13;7.85;;;;;;;;;;5050766;28;20391;-82
2021/08/13 05:40:10;;;;;;;11.93;7.90;;;20.50;99.90;;;;;;5049221;28;20079;-84
2021/08/13 05:42:36;;;;;;;14.57;7.85;;;;;;;;;;5061887;28;20028;-82
2021/08/13 05:45:02;;;;;;;13.00;8.13;;;;;;;;;;5059717;28;20032;-80
2021/08/13 05:47:28;;;;;;;14.73;8.18;;;;;;;;;;5044260;28;20024;-85
2021/08/13 05:49:54;;;;;;;15.02;7.97;;;;;;;;;;5055698;28;20048;-83
2021/08/13 05:52:20;;;;;;;14.10;8.43;;;;;;;;;;5057851;28;20024;-82
2021/08/13 05:54:46;;;;;;;13.60;8.05;;;;;;;;;;5051229;28;20173;-81
2021/08/13 05:57:12;;;;;;;12.65;7.40;;;;;;;;;;5063226;28;20168;-82
2021/08/13 05:59:38;;;;;;;13.10;8.27;;;;;;;;;;5066872;28;20025;-84
2021/08/13 06:02:04;;;;;;;13.07;7.97;;;;;;;;;;5050192;28;20029;-83
2021/08/13 06:04:30;;;;;;;12.00;7.32;;;;;;;;;;5057266;28;20017;-83
2021/08/13 06:06:56;;;;;;;11.23;7.93;;;;;;;;;;5048002;28;20017;-82
2021/08/13 06:09:22;;;;;;;10.38;7.25;;;;;;;;;;5049615;28;20483;-82
2021/08/13 06:11:48;;;;;;;13.25;7.88;;;;;;;;;;5054414;28;20117;-80
2021/08/13 06:14:14;;;;;;;12.40;7.47;;;21.90;99.90;;;;;;5056196;28;20048;-84
2021/08/13 06:16:40;;;;;;;12.05;7.95;;;;;;;;;;5057207;28;20039;-84
2021/08/13 06:19:06;;;;;;;10.65;7.07;;;;;;;;;;5050405;28;20034;-82
2021/08/13 06:21:32;;;;;;;12.65;7.80;;;;;;;;;;5053988;28;20059;-82
2021/08/13 06:23:58;;;;;;;13.23;7.88;;;22.50;99.90;;;;;;5044182;28;20030;-79
2021/08/13 06:26:24;;;;;;;14.82;7.43;;;;;;;;;;5056738;28;20028;-82
2021/08/13 06:28:52;;;;;;;13.45;7.32;;;22.40;99.90;;;;;;5064546;28;20041;-81
2021/08/13 06:31:18;;;;;;;13.00;7.32;;;;;;;;;;5066339;28;20112;-81
2021/08/13 06:33:44;;;;;;;13.85;7.47;;;;;;;;;;5048518;28;20041;-84
2021/08/13 06:36:10;;;;;;;13.90;7.43;;;22.50;99.90;;;;;;5044801;28;20096;-81
2021/08/13 06:38:36;;;;;;;11.88;7.75;;;22.40;99.90;;;;;;5049270;28;20078;-83
2021/08/13 06:41:02;;;;;;;12.02;6.53;;;22.50;99.90;;;;;;5055527;28;20030;-82
2021/08/13 06:43:27;;;;;;;13.32;7.07;;;22.50;99.90;;;;;;5055286;28;20027;-83
2021/08/13 06:45:53;;;;;;;11.82;7.20;;;22.60;99.90;;;;;;5049794;28;20052;-84
2021/08/13 06:48:18;;;;;;;14.85;6.55;;;22.60;99.90;;;;;;5046346;28;20058;-82
2021/08/13 06:50:44;;;;;;;12.50;6.60;;;22.60;99.90;;;;;;5063372;28;20025;-83
2021/08/13 06:53:09;;;;;;;15.73;6.97;;;22.60;99.90;;;;;;5065183;28;20123;-83
2021/08/13 06:55:35;;;;;;;13.15;6.57;;;22.60;99.90;;;;;;5046645;28;20105;-82
2021/08/13 06:58:04;;;;;;;13.32;7.20;;;22.80;99.90;;;;;;5056660;28;20056;-82
2021/08/13 07:00:30;;;;;;;12.23;6.72;;;22.80;99.90;;;;;;5064863;28;20122;-82
2021/08/13 07:02:56;;;;;;;11.13;6.95;;;23.10;99.90;;;;;;5044799;28;20029;-83
2021/08/13 07:05:21;;;;;;;10.75;5.93;;;23.20;99.90;;;;;;5079301;28;20038;-82
2021/08/13 07:07:47;;;;;;;11.32;5.53;;;23.40;99.90;;;;;;5057380;28;20021;-81
2021/08/13 07:10:13;;;;;;;6.97;5.05;;;23.50;99.90;;;;;;5059847;28;20086;-81
2021/08/13 07:12:39;;;;;;;9.23;5.38;;;23.60;99.90;;;;;;5064321;28;20036;-83
2021/08/13 07:15:07;;;;;;;8.43;5.32;;;23.40;99.90;;;;;;5070956;28;20057;-80
2021/08/13 07:17:33;;;;;;;11.07;5.78;;;23.50;99.90;;;;;;5058531;28;20108;-81
2021/08/13 07:19:59;;;;;;;8.48;5.63;;;23.60;99.90;;;;;;5059136;28;20398;-82
2021/08/13 07:22:24;;;;;;;8.50;5.45;;;23.50;99.90;;;;;;5058700;28;20029;-81
2021/08/13 07:24:50;;;;;;;11.65;5.93;;;24.10;99.90;;;;;;5057214;28;20021;-82
2021/08/13 07:27:16;;;;;;;11.43;5.72;;;23.90;99.90;;;;;;5052773;28;20029;-82
2021/08/13 07:29:41;;;;;;;11.60;5.15;;;23.90;99.90;;;;;;5052526;28;20028;-82
2021/08/13 07:32:07;;;;;;;11.35;5.13;;;23.90;99.90;;;;;;5051648;28;20051;-82
2021/08/13 07:34:33;;;;;;;13.68;5.78;;;24.20;99.90;;;;;;5058761;28;20112;-80
2021/08/13 07:36:58;;;;;;;11.45;5.25;;;24.20;99.90;;;;;;5055972;28;20035;-79
2021/08/13 07:39:24;;;;;;;10.30;5.75;;;24.40;99.90;;;;;;5053410;28;20029;-81
2021/08/13 07:41:50;;;;;;;11.15;6.22;;;24.60;99.90;;;;;;5048255;28;20093;-82
2021/08/13 07:44:15;;;;;;;9.07;5.50;;;24.70;99.90;;;;;;5054265;28;20415;-82
2021/08/13 07:46:41;;;;;;;12.35;6.75;;;24.60;99.90;;;;;;5059090;28;20021;-81
2021/08/13 07:49:07;;;;;;;11.70;6.25;;;24.60;99.90;;;;;;5055860;28;20160;-81
2021/08/13 07:51:32;;;;;;;10.20;5.95;;;24.90;99.90;;;;;;5058354;28;20449;-79
2021/08/13 07:53:58;;;;;;;10.60;6.10;;;24.80;99.90;;;;;;5074130;28;20445;-81
2021/08/13 07:56:24;;;;;;;10.48;6.63;;;25.00;99.90;;;;;;5041469;28;20067;-79
2021/08/13 07:58:50;;;;;;;12.95;6.47;;;25.10;99.90;;;;;;5047254;28;20032;-81
2021/08/13 08:01:16;;;;;;;11.43;5.97;;;25.00;99.90;;;;;;5053631;28;20112;-79
2021/08/13 08:03:41;;;;;;;13.07;7.35;;;25.10;99.90;;;;;;5051594;28;20396;-80
2021/08/13 08:06:07;;;;;;;9.40;6.30;;;25.10;99.90;;;;;;5058282;28;20032;-80
2021/08/13 08:08:33;;;;;;;10.85;6.22;;;25.00;99.90;;;;;;5061893;28;20059;-80
2021/08/13 08:10:58;;;;;;;11.00;6.50;;;25.00;99.90;;;;;;5048616;28;20029;-81
2021/08/13 08:13:24;;;;;;;11.75;7.40;;;25.10;99.90;;;;;;5071696;28;20021;-80
2021/08/13 08:15:50;;;;;;;9.45;6.90;;;25.10;99.90;;;;;;5060604;28;20044;-81
2021/08/13 08:18:19;;;;;;;10.40;6.45;;;25.10;99.90;;;;;;5069594;28;20024;-79
2021/08/13 08:20:45;;;;;;;10.95;7.13;;;25.30;99.90;;;;;;5053747;28;20026;-81
2021/08/13 08:23:11;;;;;;;9.88;6.50;;;25.30;99.90;;;;;;5048513;28;20469;-82
2021/08/13 08:25:37;;;;;;;9.32;6.65;;;25.50;99.90;;;;;;5053136;28;20020;-81
2021/08/13 08:28:04;;;;;;;11.27;6.35;;;25.70;99.90;;;;;;5043199;28;20155;-79
2021/08/13 08:30:30;;;;;;;10.63;6.47;;;25.70;99.90;;;;;;5054073;28;20084;-80
2021/08/13 08:32:56;;;;;;;9.07;6.18;;;25.90;99.90;;;;;;5057400;28;20548;-80
2021/08/13 08:35:22;;;;;;;10.32;6.40;;;25.70;99.90;;;;;;5049566;28;20116;-80
2021/08/13 08:37:55;;;;;;;9.23;5.82;;;25.90;99.90;;;;;;5058414;28;20028;-80
2021/08/13 08:40:33;;;;;;;8.75;6.35;;;26.00;99.90;;;;;;5069788;28;20092;-80
2021/08/13 08:43:03;;;;;;;12.20;6.43;;;26.20;99.90;;;;;;5050232;28;20045;-80
2021/08/13 08:45:31;;;;;;;13.27;6.35;;;26.20;99.90;;;;;;5067335;28;20021;-79
2021/08/13 08:47:59;;;;;;;8.95;6.25;;;26.20;99.90;;;;;;5050168;28;20033;-81
2021/08/13 08:50:26;;;;;;;10.50;6.55;;;26.40;99.90;;;;;;5051492;28;20145;-81
2021/08/13 08:52:53;;;;;;;8.88;6.45;;;26.30;99.90;;;;;;5058233;28;20029;-79
2021/08/13 08:55:20;;;;;;;10.30;6.20;;;27.20;99.90;;;;;;5046173;28;20105;-81
2021/08/13 08:57:46;;;;;;;15.20;7.47;;;26.60;99.90;;;;;;5049682;28;20076;-79
2021/08/13 09:00:12;;;;;;;9.77;6.47;;;26.80;99.80;;;;;;5049202;28;20056;-80
2021/08/13 09:02:43;;;;;;;12.68;6.60;;;26.80;99.50;;;;;;5057187;28;20560;-82
2021/08/13 09:05:10;;;;;;;10.15;6.43;;;27.00;99.30;;;;;;5055791;28;20146;-79
2021/08/13 09:07:35;;;;;;;9.27;6.50;;;27.00;98.70;;;;;;5045611;28;20055;-79
2021/08/13 09:10:01;;;;;;;10.90;6.60;;;27.00;98.80;;;;;;5048344;28;20495;-78
2021/08/13 09:12:27;;;;;;;14.55;7.18;;;27.20;98.80;;;;;;5050117;28;20051;-78
2021/08/13 09:14:52;;;;;;;14.75;8.80;;;27.20;98.10;;;;;;5053342;28;20027;-79
2021/08/13 09:17:27;;;;;;;10.10;6.65;;;27.40;98.20;;;;;;5048983;28;20104;-78
2021/08/13 09:19:53;;;;;;;8.73;6.07;;;27.40;98.40;;;;;;5041103;28;20075;-80
2021/08/13 09:22:20;;;;;;;10.73;6.07;;;27.50;98.70;;;;;;5065134;28;20017;-80
2021/08/13 09:24:48;;;;;;;10.45;5.95;;;27.60;98.30;;;;;;5048909;28;20036;-78
2021/08/13 09:27:16;;;;;;;12.88;6.53;;;27.70;98.10;;;;;;5063710;28;20033;-79
2021/08/13 09:30:12;;;;;;;11.77;6.90;;;27.70;97.20;;;;;;5042432;28;20025;-79
2021/08/13 09:32:40;;;;;;;11.00;6.43;;;28.00;97.50;;;;;;5052574;28;20041;-80
2021/08/13 09:35:07;;;;;;;13.52;7.28;;;27.80;98.00;;;;;;5049693;28;20060;-79
2021/08/13 09:37:34;;;;;;;12.20;7.40;;;28.00;97.90;;;;;;5050954;28;20040;-80
2021/08/13 09:40:01;;;;;;;11.00;6.50;;;;;;;;;;5049035;28;20398;-81
2021/08/13 09:42:35;;;;;;;11.27;6.75;;;28.30;97.30;;;;;;5050059;28;20091;-80
2021/08/13 09:45:11;;;;;;;10.82;6.38;;;28.50;96.10;;;;;;5053272;28;20025;-82
2021/08/13 09:47:45;;;;;;;7.95;6.25;;;28.60;95.00;;;;;;5055070;28;20101;-80
2021/08/13 09:50:13;;;;;;;13.10;8.30;;;28.70;94.60;;;;;;5046472;28;20032;-79
2021/08/13 09:52:39;;;;;;;11.30;6.22;;;28.70;94.90;;;;;;5051031;28;20094;-80
2021/08/13 09:55:15;;;;;;;9.32;6.80;;;28.70;95.00;;;;;;5054616;28;20687;-80
2021/08/13 09:57:48;;;;;;;12.55;7.78;;;28.70;95.10;;;;;;5052890;28;20419;-79
2021/08/13 10:00:18;;;;;;;14.55;6.70;;;28.70;94.80;;;;;;5045319;28;20056;-79
2021/08/13 10:02:45;;;;;;;12.35;6.53;;;28.70;94.60;;;;;;5049294;28;20036;-79
2021/08/13 10:05:27;;;;;;;11.52;7.47;;;28.70;94.80;;;;;;5059443;28;20025;-80
2021/08/13 10:07:54;;;;;;;14.50;8.07;;;28.60;95.10;;;;;;5046280;28;20445;-79
2021/08/13 10:10:35;;;;;;;10.52;6.90;;;28.60;94.60;;;;;;5038463;28;20517;-79
2021/08/13 10:13:02;;;;;;;10.35;6.82;;;28.80;94.80;;;;;;5041555;28;20045;-80
2021/08/13 10:15:45;;;;;;;9.50;6.88;;;29.00;93.90;;;;;;5050938;28;20037;-81
2021/08/13 10:18:13;;;;;;;12.25;7.13;;;29.20;93.10;;;;;;5049168;28;20060;-82
2021/08/13 10:20:44;;;;;;;11.40;7.20;;;29.20;93.30;;;;;;5049296;28;20504;-81
2021/08/13 10:23:11;;;;;;;10.52;6.82;;;29.30;93.20;;;;;;5057764;28;20043;-81
2021/08/13 10:25:38;;;;;;;10.88;7.30;;;29.30;93.50;;;;;;5053222;28;20032;-80
2021/08/13 10:28:04;;;;;;;11.10;7.20;;;29.40;93.50;;;;;;5067914;28;20035;-79
2021/08/13 10:30:30;;;;;;;10.23;6.75;;;29.40;93.60;;;;;;5044445;28;20207;-79
2021/08/13 10:32:58;;;;;;;11.27;7.20;;;29.40;93.20;;;;;;5049152;28;20033;-77
2021/08/13 10:35:28;;;;;;;9.45;6.25;;;29.30;93.00;;;;;;5052061;28;20022;-82
2021/08/13 10:37:54;;;;;;;9.60;6.80;;;29.40;92.70;;;;;;5051012;28;20025;-82
2021/08/13 10:40:20;;;;;;;11.10;6.28;;;29.60;92.60;;;;;;5042925;28;20112;-81
2021/08/13 10:42:49;;;;;;;9.60;6.93;;;29.50;92.20;;;;;;5057035;28;20060;-81
2021/08/13 10:45:25;;;;;;;10.53;6.60;;;29.60;92.40;;;;;;5051092;28;20474;-80
2021/08/13 10:48:14;;;;;;;8.90;6.60;;;29.60;92.30;;;;;;5057768;28;20283;-79
2021/08/13 10:50:41;;;;;;;9.98;6.97;;;29.60;92.00;;;;;;5036398;28;20387;-80
2021/08/13 10:53:39;;;;;;;8.63;6.25;;;29.70;91.80;;;;;;5060893;28;20419;-80
2021/08/13 10:56:06;;;;;;;9.65;6.90;;;29.60;91.90;;;;;;5041809;28;20043;-80
2021/08/13 10:58:41;;;;;;;9.32;6.47;;;29.50;91.90;;;;;;5052925;28;20367;-78
2021/08/13 11:01:08;;;;;;;11.00;6.70;;;29.30;91.60;;;;;;5055999;28;20040;-79
2021/08/13 11:03:35;;;;;;;14.05;6.95;;;29.10;91.30;;;;;;5057684;28;20063;-79
2021/08/13 11:06:01;;;;;;;9.93;5.90;;;29.20;91.30;;;;;;5053630;28;20029;-79
2021/08/13 11:08:39;;;;;;;9.98;5.68;;;29.30;91.00;;;;;;5044533;28;20503;-78
2021/08/13 11:11:05;;;;;;;9.60;6.40;;;29.50;90.10;;;;;;5062864;28;20036;-79
2021/08/13 11:13:38;;;;;;;11.88;6.28;;;29.70;89.90;;;;;;5050538;28;20021;-80
2021/08/13 11:16:29;;;;;;;9.93;6.13;;;29.90;89.10;;;;;;5043208;28;20025;-77
2021/08/13 11:18:59;;;;;;;8.35;5.82;;;30.10;86.30;;;;;;5046058;28;20033;-79
2021/08/13 11:21:46;;;;;;;7.82;4.93;;;30.00;86.30;;;;;;5049744;28;20382;-79
2021/08/13 11:24:13;;;;;;;8.43;5.32;;;29.90;83.90;;;;;;5054648;28;20082;-78
2021/08/13 11:26:51;;;;;;;8.38;5.50;;;29.90;84.30;;;;;;5054266;28;20028;-79
2021/08/13 11:29:35;;;;;;;8.52;4.82;;;30.20;86.00;;;;;;5076875;28;20033;-80
2021/08/13 11:32:17;;;;;;;7.78;5.25;;;30.30;82.20;;;;;;5053774;28;20390;-79
2021/08/13 11:34:45;;;;;;;7.13;4.60;;;30.30;81.90;;;;;;5052284;28;20028;-81
2021/08/13 11:37:41;;;;;;;8.47;5.30;;;30.00;81.70;;;;;;5051469;28;20032;-80
2021/08/13 11:40:07;;;;;;;7.50;4.80;;;30.10;81.80;;;;;;5054434;28;20029;-80
2021/08/13 11:42:34;;;;;;;7.60;4.47;;;30.30;79.20;;;;;;5050525;28;20083;-79
2021/08/13 11:45:00;;;;;;;6.25;4.70;;;;;;;;;;5042534;28;20045;-79
2021/08/13 11:47:26;;;;;;;10.32;5.20;;;30.50;78.10;;;;;;5055805;28;20021;-79
2021/08/13 11:49:52;;;;;;;8.63;5.93;;;;;;;;;;5050065;28;20527;-81
2021/08/13 11:52:22;;;;;;;9.18;5.25;;;30.40;80.70;;;;;;5068200;28;20016;-80
2021/08/13 11:54:49;;;;;;;10.60;5.93;;;30.50;82.20;;;;;;5049720;28;20040;-78
2021/08/13 11:57:19;;;;;;;6.55;5.05;;;30.30;82.60;;;;;;5055621;28;20056;-80
2021/08/13 11:59:46;;;;;;;9.57;5.10;;;30.20;81.30;;;;;;5067064;28;20040;-80
2021/08/13 12:02:12;;;;;;;9.38;5.55;;;30.10;81.60;;;;;;5045578;28;20021;-79
2021/08/13 12:04:38;;;;;;;7.80;5.47;;;30.20;82.10;;;;;;5059925;28;20083;-80
2021/08/13 12:07:12;;;;;;;8.35;5.32;;;30.40;82.50;;;;;;5044663;28;20029;-81
2021/08/13 12:09:39;;;;;;;7.45;4.85;;;31.80;82.00;;;;;;5052555;28;20109;-80
2021/08/13 12:12:07;;;;;;;8.60;5.30;;;30.40;80.70;;;;;;5060004;28;20486;-81
2021/08/13 12:14:34;;;;;;;9.57;5.95;;;32.70;82.70;;;;;;5052167;28;20476;-80
2021/08/13 12:16:59;;;;;;;7.82;5.25;;;30.70;82.20;;;;;;5054965;28;20033;-81
2021/08/13 12:19:25;;;;;;;9.55;5.18;;;30.80;80.30;;;;;;5047456;28;20483;-79
2021/08/13 12:22:11;;;;;;;7.47;4.95;;;30.80;79.30;;;;;;5061014;28;20036;-79
2021/08/13 12:24:38;;;;;;;8.32;5.45;;;31.00;76.80;;;;;;5044781;28;20047;-81
2021/08/13 12:27:07;;;;;;;7.97;5.55;;;31.00;77.80;;;;;;5058118;28;20031;-80
2021/08/13 12:29:34;;;;;;;11.02;5.47;;;30.90;78.10;;;;;;5073572;28;20024;-81
2021/08/13 12:32:02;;;;;;;8.63;5.78;;;31.00;77.80;;;;;;5050968;28;20060;-80
2021/08/13 12:34:30;;;;;;;7.80;5.35;;;31.00;77.90;;;;;;5063012;28;20161;-80
2021/08/13 12:37:07;;;;;;;8.07;5.50;;;31.00;77.70;;;;;;5049283;28;20570;-79
2021/08/13 12:39:42;;;;;;;9.90;5.40;;;31.00;77.90;;;;;;5042013;28;20434;-80
2021/08/13 12:42:09;;;;;;;6.95;5.03;;;31.10;77.20;;;;;;5034983;28;20205;-79
2021/08/13 12:44:38;;;;;;;7.50;5.30;;;31.00;77.20;;;;;;5053067;28;20044;-80
2021/08/13 12:47:05;;;;;;;7.70;5.63;;;31.00;77.80;;;;;;5063168;28;20028;-79
2021/08/13 12:49:34;;;;;;;6.20;5.00;;;31.00;75.90;;;;;;5048472;28;20033;-80
2021/08/13 12:52:20;;;;;;;8.60;4.43;;;30.80;76.00;;;;;;5046531;28;20427;-78
2021/08/13 12:54:52;;;;;;;9.25;4.75;;;30.80;75.50;;;;;;5048181;28;20021;-79
2021/08/13 12:57:19;;;;;;;8.55;5.10;;;30.60;76.10;;;;;;5050750;28;20024;-79
2021/08/13 13:00:09;;;;;;;6.85;4.75;;;30.60;76.80;;;;;;5058950;28;20030;-78
2021/08/13 13:02:35;;;;;;;8.13;5.00;;;30.80;75.90;;;;;;5045822;28;20029;-79
2021/08/13 13:05:00;;;;;;;8.05;5.10;;;30.80;75.90;;;;;;5046426;28;20117;-79
2021/08/13 13:08:05;;;;;;;7.30;5.32;;;31.00;76.60;;;;;;5057891;28;20092;-80
2021/08/13 13:10:34;;;;;;;7.22;5.13;;;30.90;76.70;;;;;;5060462;28;20533;-81
2021/08/13 13:13:06;;;;;;;9.82;5.20;;;31.00;76.20;;;;;;5048779;28;20491;-79
2021/08/13 13:15:33;;;;;;;7.97;5.13;;;;;;;;;;5050942;28;20079;-81
2021/08/13 13:18:00;;;;;;;6.55;4.90;;;30.80;75.60;;;;;;5055281;28;20024;-80